sensor_id;sensor_type;location;lat;lon;timestamp;temperature;humidity
16441;DHT22;8330;-33.858;151.184;2023-04-24T00:02:15;23.60;99.90
16441;DHT22;8330;-33.858;151.184;2023-04-24T00:04:46;23.60;99.90
16441;DHT22;8330;-33.858;151.184;2023-04-24T00:07:17;23.60;99.90
16441;DHT22;8330;-33.858;151.184;2023-04-24T00:09:48;23.50;99.90
16441;DHT22;8330;-33.858;151.184;2023-04-24T00:12:19;23.60;99.90
16441;DHT22;8330;-33.858;151.184;2023-04-24T00:14:50;23.60;99.90
16441;DHT22;8330;-33.858;151.184;2023-04-24T00:17:23;23.60;99.90
16441;DHT22;8330;-33.858;151.184;2023-04-24T00:19:54;23.70;99.90
16441;DHT22;8330;-33.858;151.184;2023-04-24T00:22:27;23.70;99.90
16441;DHT22;8330;-33.858;151.184;2023-04-24T00:24:58;23.70;99.90
16441;DHT22;8330;-33.858;151.184;2023-04-24T00:27:30;23.70;99.90
16441;DHT22;8330;-33.858;151.184;2023-04-24T00:30:01;23.70;99.90
16441;DHT22;8330;-33.858;151.184;2023-04-24T00:32:34;23.80;99.90
16441;DHT22;8330;-33.858;151.184;2023-04-24T00:35:06;23.80;99.90
16441;DHT22;8330;-33.858;151.184;2023-04-24T00:37:37;23.80;99.90
16441;DHT22;8330;-33.858;151.184;2023-04-24T00:40:08;23.70;99.90
16441;DHT22;8330;-33.858;151.184;2023-04-24T00:42:40;23.80;99.90
16441;DHT22;8330;-33.858;151.184;2023-04-24T00:45:11;23.90;99.90
16441;DHT22;8330;-33.858;151.184;2023-04-24T00:47:45;23.90;99.90
16441;DHT22;8330;-33.858;151.184;2023-04-24T00:50:16;24.00;99.90
16441;DHT22;8330;-33.858;151.184;2023-04-24T00:52:47;24.10;99.90
16441;DHT22;8330;-33.858;151.184;2023-04-24T00:55:19;24.10;99.90
16441;DHT22;8330;-33.858;151.184;2023-04-24T00:57:51;24.10;99.90
16441;DHT22;8330;-33.858;151.184;2023-04-24T01:00:23;24.30;99.90
16441;DHT22;8330;-33.858;151.184;2023-04-24T01:02:57;24.30;99.90
16441;DHT22;8330;-33.858;151.184;2023-04-24T01:05:30;24.40;99.90
16441;DHT22;8330;-33.858;151.184;2023-04-24T01:08:01;24.30;99.90
16441;DHT22;8330;-33.858;151.184;2023-04-24T01:10:34;24.30;99.90
16441;DHT22;8330;-33.858;151.184;2023-04-24T01:13:07;24.40;99.90
16441;DHT22;8330;-33.858;151.184;2023-04-24T01:15:39;24.50;99.90
16441;DHT22;8330;-33.858;151.184;2023-04-24T01:18:12;24.50;99.90
16441;DHT22;8330;-33.858;151.184;2023-04-24T01:20:43;24.70;99.90
16441;DHT22;8330;-33.858;151.184;2023-04-24T01:23:18;24.80;99.90
16441;DHT22;8330;-33.858;151.184;2023-04-24T01:25:49;24.90;99.90
16441;DHT22;8330;-33.858;151.184;2023-04-24T01:28:20;24.90;99.90
16441;DHT22;8330;-33.858;151.184;2023-04-24T01:30:51;24.90;99.90
16441;DHT22;8330;-33.858;151.184;2023-04-24T01:33:22;24.80;99.90
16441;DHT22;8330;-33.858;151.184;2023-04-24T01:35:54;24.90;99.90
16441;DHT22;8330;-33.858;151.184;2023-04-24T01:38:27;24.90;99.90
16441;DHT22;8330;-33.858;151.184;2023-04-24T01:40:58;24.90;99.90
16441;DHT22;8330;-33.858;151.184;2023-04-24T01:43:29;25.00;99.90
16441;DHT22;8330;-33.858;151.184;2023-04-24T01:46:00;25.00;99.90
16441;DHT22;8330;-33.858;151.184;2023-04-24T01:48:31;24.90;99.90
16441;DHT22;8330;-33.858;151.184;2023-04-24T01:51:02;24.80;99.90
16441;DHT22;8330;-33.858;151.184;2023-04-24T01:53:35;24.80;99.90
16441;DHT22;8330;-33.858;151.184;2023-04-24T01:56:06;24.80;99.90
16441;DHT22;8330;-33.858;151.184;2023-04-24T01:58:37;24.80;99.90
16441;DHT22;8330;-33.858;151.184;2023-04-24T02:01:08;24.70;99.90
16441;DHT22;8330;-33.858;151.184;2023-04-24T02:03:40;24.60;99.90
16441;DHT22;8330;-33.858;151.184;2023-04-24T02:06:11;24.40;99.90
16441;DHT22;8330;-33.858;151.184;2023-04-24T02:08:44;24.20;99.90
16441;DHT22;8330;-33.858;151.184;2023-04-24T02:11:14;24.10;99.90
16441;DHT22;8330;-33.858;151.184;2023-04-24T02:13:46;23.90;99.90
16441;DHT22;8330;-33.858;151.184;2023-04-24T02:16:18;23.80;99.90
16441;DHT22;8330;-33.858;151.184;2023-04-24T02:18:49;23.70;99.90
16441;DHT22;8330;-33.858;151.184;2023-04-24T02:21:20;23.50;99.90
16441;DHT22;8330;-33.858;151.184;2023-04-24T02:23:52;23.40;99.90
16441;DHT22;8330;-33.858;151.184;2023-04-24T02:26:23;23.30;99.90
16441;DHT22;8330;-33.858;151.184;2023-04-24T02:28:54;23.10;99.90
16441;DHT22;8330;-33.858;151.184;2023-04-24T02:31:27;23.10;99.90
16441;DHT22;8330;-33.858;151.184;2023-04-24T02:34:00;23.00;99.90
16441;DHT22;8330;-33.858;151.184;2023-04-24T02:36:31;22.90;99.90
16441;DHT22;8330;-33.858;151.184;2023-04-24T02:39:04;22.80;99.90
16441;DHT22;8330;-33.858;151.184;2023-04-24T02:41:35;22.80;99.90
16441;DHT22;8330;-33.858;151.184;2023-04-24T02:44:06;22.80;99.90
16441;DHT22;8330;-33.858;151.184;2023-04-24T02:46:37;22.70;99.90
16441;DHT22;8330;-33.858;151.184;2023-04-24T02:49:09;22.70;99.90
16441;DHT22;8330;-33.858;151.184;2023-04-24T02:51:40;22.70;99.90
16441;DHT22;8330;-33.858;151.184;2023-04-24T02:54:12;22.70;99.90
16441;DHT22;8330;-33.858;151.184;2023-04-24T02:56:43;22.80;99.90
16441;DHT22;8330;-33.858;151.184;2023-04-24T02:59:14;22.80;99.90
16441;DHT22;8330;-33.858;151.184;2023-04-24T03:01:45;22.90;99.90
16441;DHT22;8330;-33.858;151.184;2023-04-24T03:04:17;22.90;99.90
16441;DHT22;8330;-33.858;151.184;2023-04-24T03:06:48;22.90;99.90
16441;DHT22;8330;-33.858;151.184;2023-04-24T03:09:21;23.00;99.90
16441;DHT22;8330;-33.858;151.184;2023-04-24T03:11:52;23.10;99.90
16441;DHT22;8330;-33.858;151.184;2023-04-24T03:14:24;23.10;99.90
16441;DHT22;8330;-33.858;151.184;2023-04-24T03:16:55;23.20;99.90
16441;DHT22;8330;-33.858;151.184;2023-04-24T03:19:26;23.20;99.90
16441;DHT22;8330;-33.858;151.184;2023-04-24T03:21:58;23.20;99.90
16441;DHT22;8330;-33.858;151.184;2023-04-24T03:24:31;23.30;99.90
16441;DHT22;8330;-33.858;151.184;2023-04-24T03:27:02;23.30;99.90
16441;DHT22;8330;-33.858;151.184;2023-04-24T03:29:33;23.20;99.90
16441;DHT22;8330;-33.858;151.184;2023-04-24T03:32:04;23.20;99.90
16441;DHT22;8330;-33.858;151.184;2023-04-24T03:34:35;23.20;99.90
16441;DHT22;8330;-33.858;151.184;2023-04-24T03:37:06;23.20;99.90
16441;DHT22;8330;-33.858;151.184;2023-04-24T03:39:39;23.20;99.90
16441;DHT22;8330;-33.858;151.184;2023-04-24T03:42:10;23.20;99.90
16441;DHT22;8330;-33.858;151.184;2023-04-24T03:44:41;23.20;99.90
16441;DHT22;8330;-33.858;151.184;2023-04-24T03:47:12;23.10;99.90
16441;DHT22;8330;-33.858;151.184;2023-04-24T03:49:51;23.10;99.90
16441;DHT22;8330;-33.858;151.184;2023-04-24T03:52:26;23.10;99.90
16441;DHT22;8330;-33.858;151.184;2023-04-24T03:55:05;23.10;99.90
16441;DHT22;8330;-33.858;151.184;2023-04-24T03:57:36;23.10;99.90
16441;DHT22;8330;-33.858;151.184;2023-04-24T04:00:10;23.10;99.90
16441;DHT22;8330;-33.858;151.184;2023-04-24T04:02:42;23.10;99.90
16441;DHT22;8330;-33.858;151.184;2023-04-24T04:05:14;23.10;99.90
16441;DHT22;8330;-33.858;151.184;2023-04-24T04:07:45;23.10;99.90
16441;DHT22;8330;-33.858;151.184;2023-04-24T04:10:18;23.10;99.90
16441;DHT22;8330;-33.858;151.184;2023-04-24T04:12:54;23.20;99.90
16441;DHT22;8330;-33.858;151.184;2023-04-24T04:15:26;23.20;99.90
16441;DHT22;8330;-33.858;151.184;2023-04-24T04:18:07;23.20;99.90
16441;DHT22;8330;-33.858;151.184;2023-04-24T04:20:39;23.40;99.90
16441;DHT22;8330;-33.858;151.184;2023-04-24T04:23:10;23.50;99.90
16441;DHT22;8330;-33.858;151.184;2023-04-24T04:25:44;23.70;99.90
16441;DHT22;8330;-33.858;151.184;2023-04-24T04:28:15;23.70;99.90
16441;DHT22;8330;-33.858;151.184;2023-04-24T04:30:47;23.70;99.90
16441;DHT22;8330;-33.858;151.184;2023-04-24T04:33:21;23.80;99.90
16441;DHT22;8330;-33.858;151.184;2023-04-24T04:35:52;23.80;99.90
16441;DHT22;8330;-33.858;151.184;2023-04-24T04:38:26;23.80;99.90
16441;DHT22;8330;-33.858;151.184;2023-04-24T04:40:59;23.90;99.90
16441;DHT22;8330;-33.858;151.184;2023-04-24T04:43:31;23.90;99.90
16441;DHT22;8330;-33.858;151.184;2023-04-24T04:46:02;24.00;99.90
16441;DHT22;8330;-33.858;151.184;2023-04-24T04:48:33;24.10;99.90
16441;DHT22;8330;-33.858;151.184;2023-04-24T04:51:04;24.10;99.90
16441;DHT22;8330;-33.858;151.184;2023-04-24T04:53:35;24.00;99.90
16441;DHT22;8330;-33.858;151.184;2023-04-24T04:56:09;23.90;99.90
16441;DHT22;8330;-33.858;151.184;2023-04-24T04:58:40;23.90;99.90
16441;DHT22;8330;-33.858;151.184;2023-04-24T05:01:11;23.90;99.90
16441;DHT22;8330;-33.858;151.184;2023-04-24T05:03:42;24.00;99.90
16441;DHT22;8330;-33.858;151.184;2023-04-24T05:06:13;24.10;99.90
16441;DHT22;8330;-33.858;151.184;2023-04-24T05:08:45;24.10;99.90
16441;DHT22;8330;-33.858;151.184;2023-04-24T05:11:18;24.00;99.90
16441;DHT22;8330;-33.858;151.184;2023-04-24T05:13:51;23.90;99.90
16441;DHT22;8330;-33.858;151.184;2023-04-24T05:16:22;23.90;99.90
16441;DHT22;8330;-33.858;151.184;2023-04-24T05:18:53;23.90;99.90
16441;DHT22;8330;-33.858;151.184;2023-04-24T05:21:24;23.90;99.90
16441;DHT22;8330;-33.858;151.184;2023-04-24T05:23:55;23.90;99.90
16441;DHT22;8330;-33.858;151.184;2023-04-24T05:26:28;23.90;99.90
16441;DHT22;8330;-33.858;151.184;2023-04-24T05:29:01;23.70;99.90
16441;DHT22;8330;-33.858;151.184;2023-04-24T05:31:32;23.60;99.90
16441;DHT22;8330;-33.858;151.184;2023-04-24T05:34:03;23.50;99.90
16441;DHT22;8330;-33.858;151.184;2023-04-24T05:36:34;23.40;99.90
16441;DHT22;8330;-33.858;151.184;2023-04-24T05:39:05;23.40;99.90
16441;DHT22;8330;-33.858;151.184;2023-04-24T05:41:38;23.30;99.90
16441;DHT22;8330;-33.858;151.184;2023-04-24T05:44:10;23.20;99.90
16441;DHT22;8330;-33.858;151.184;2023-04-24T05:46:45;23.10;99.90
16441;DHT22;8330;-33.858;151.184;2023-04-24T05:49:20;23.10;99.90
16441;DHT22;8330;-33.858;151.184;2023-04-24T05:51:51;23.00;99.90
16441;DHT22;8330;-33.858;151.184;2023-04-24T05:54:22;23.00;99.90
16441;DHT22;8330;-33.858;151.184;2023-04-24T05:56:55;22.90;99.90
16441;DHT22;8330;-33.858;151.184;2023-04-24T05:59:29;22.90;99.90
16441;DHT22;8330;-33.858;151.184;2023-04-24T06:02:00;22.90;99.90
16441;DHT22;8330;-33.858;151.184;2023-04-24T06:04:33;22.90;99.90
16441;DHT22;8330;-33.858;151.184;2023-04-24T06:07:04;22.80;99.90
16441;DHT22;8330;-33.858;151.184;2023-04-24T06:09:36;22.70;99.90
16441;DHT22;8330;-33.858;151.184;2023-04-24T06:12:10;22.60;99.90
16441;DHT22;8330;-33.858;151.184;2023-04-24T06:14:41;22.50;99.90
16441;DHT22;8330;-33.858;151.184;2023-04-24T06:17:12;22.50;99.90
16441;DHT22;8330;-33.858;151.184;2023-04-24T06:19:43;22.40;99.90
16441;DHT22;8330;-33.858;151.184;2023-04-24T06:22:14;22.40;99.90
16441;DHT22;8330;-33.858;151.184;2023-04-24T06:24:46;22.40;99.90
16441;DHT22;8330;-33.858;151.184;2023-04-24T06:27:19;22.30;99.90
16441;DHT22;8330;-33.858;151.184;2023-04-24T06:29:50;22.20;99.90
16441;DHT22;8330;-33.858;151.184;2023-04-24T06:32:23;22.20;99.90
16441;DHT22;8330;-33.858;151.184;2023-04-24T06:34:55;22.10;99.90
16441;DHT22;8330;-33.858;151.184;2023-04-24T06:37:26;22.10;99.90
16441;DHT22;8330;-33.858;151.184;2023-04-24T06:39:57;22.10;99.90
16441;DHT22;8330;-33.858;151.184;2023-04-24T06:42:30;22.00;99.90
16441;DHT22;8330;-33.858;151.184;2023-04-24T06:45:03;22.00;99.90
16441;DHT22;8330;-33.858;151.184;2023-04-24T06:47:34;21.90;99.90
16441;DHT22;8330;-33.858;151.184;2023-04-24T06:50:06;21.90;99.90
16441;DHT22;8330;-33.858;151.184;2023-04-24T06:52:38;21.90;99.90
16441;DHT22;8330;-33.858;151.184;2023-04-24T06:55:09;21.80;99.90
16441;DHT22;8330;-33.858;151.184;2023-04-24T06:57:43;21.80;99.90
16441;DHT22;8330;-33.858;151.184;2023-04-24T07:00:15;21.80;99.90
16441;DHT22;8330;-33.858;151.184;2023-04-24T07:02:47;21.70;99.90
16441;DHT22;8330;-33.858;151.184;2023-04-24T07:05:18;21.70;99.90
16441;DHT22;8330;-33.858;151.184;2023-04-24T07:07:50;21.70;99.90
16441;DHT22;8330;-33.858;151.184;2023-04-24T07:10:21;21.60;99.90
16441;DHT22;8330;-33.858;151.184;2023-04-24T07:12:54;21.60;99.90
16441;DHT22;8330;-33.858;151.184;2023-04-24T07:15:25;21.50;99.90
16441;DHT22;8330;-33.858;151.184;2023-04-24T07:17:56;21.50;99.90
16441;DHT22;8330;-33.858;151.184;2023-04-24T07:20:27;21.40;99.90
16441;DHT22;8330;-33.858;151.184;2023-04-24T07:22:59;21.30;99.90
16441;DHT22;8330;-33.858;151.184;2023-04-24T07:25:30;21.20;99.90
16441;DHT22;8330;-33.858;151.184;2023-04-24T07:28:03;21.10;99.90
16441;DHT22;8330;-33.858;151.184;2023-04-24T07:30:35;21.00;99.90
16441;DHT22;8330;-33.858;151.184;2023-04-24T07:33:14;20.80;99.90
16441;DHT22;8330;-33.858;151.184;2023-04-24T07:35:45;20.70;99.90
16441;DHT22;8330;-33.858;151.184;2023-04-24T07:38:17;20.60;99.90
16441;DHT22;8330;-33.858;151.184;2023-04-24T07:40:51;20.60;99.90
16441;DHT22;8330;-33.858;151.184;2023-04-24T07:43:33;20.40;99.90
16441;DHT22;8330;-33.858;151.184;2023-04-24T07:46:04;20.40;99.90
16441;DHT22;8330;-33.858;151.184;2023-04-24T07:48:35;20.40;99.90
16441;DHT22;8330;-33.858;151.184;2023-04-24T07:51:07;20.30;99.90
16441;DHT22;8330;-33.858;151.184;2023-04-24T07:53:40;20.20;99.90
16441;DHT22;8330;-33.858;151.184;2023-04-24T07:56:11;20.20;99.90
16441;DHT22;8330;-33.858;151.184;2023-04-24T07:58:44;20.20;99.90
16441;DHT22;8330;-33.858;151.184;2023-04-24T08:01:16;20.30;99.90
16441;DHT22;8330;-33.858;151.184;2023-04-24T08:03:48;20.30;99.90
16441;DHT22;8330;-33.858;151.184;2023-04-24T08:06:19;20.30;99.90
16441;DHT22;8330;-33.858;151.184;2023-04-24T08:08:50;20.30;99.90
16441;DHT22;8330;-33.858;151.184;2023-04-24T08:11:21;20.30;99.90
16441;DHT22;8330;-33.858;151.184;2023-04-24T08:13:54;20.30;99.90
16441;DHT22;8330;-33.858;151.184;2023-04-24T08:16:28;20.40;99.90
16441;DHT22;8330;-33.858;151.184;2023-04-24T08:18:59;20.40;99.90
16441;DHT22;8330;-33.858;151.184;2023-04-24T08:21:30;20.40;99.90
16441;DHT22;8330;-33.858;151.184;2023-04-24T08:24:01;20.50;99.90
16441;DHT22;8330;-33.858;151.184;2023-04-24T08:26:35;20.60;99.90
16441;DHT22;8330;-33.858;151.184;2023-04-24T08:29:08;20.60;99.90
16441;DHT22;8330;-33.858;151.184;2023-04-24T08:31:39;20.60;99.90
16441;DHT22;8330;-33.858;151.184;2023-04-24T08:34:12;20.70;99.90
16441;DHT22;8330;-33.858;151.184;2023-04-24T08:36:43;20.70;99.90
16441;DHT22;8330;-33.858;151.184;2023-04-24T08:39:14;20.70;99.90
16441;DHT22;8330;-33.858;151.184;2023-04-24T08:41:46;20.60;99.90
16441;DHT22;8330;-33.858;151.184;2023-04-24T08:44:21;20.60;99.90
16441;DHT22;8330;-33.858;151.184;2023-04-24T08:46:52;20.70;99.90
16441;DHT22;8330;-33.858;151.184;2023-04-24T08:49:25;20.60;99.90
16441;DHT22;8330;-33.858;151.184;2023-04-24T08:51:57;20.70;99.90
16441;DHT22;8330;-33.858;151.184;2023-04-24T08:54:33;20.70;99.90
16441;DHT22;8330;-33.858;151.184;2023-04-24T08:57:04;20.70;99.90
16441;DHT22;8330;-33.858;151.184;2023-04-24T08:59:41;20.70;99.90
16441;DHT22;8330;-33.858;151.184;2023-04-24T09:02:14;20.70;99.90
16441;DHT22;8330;-33.858;151.184;2023-04-24T09:04:48;20.60;99.90
16441;DHT22;8330;-33.858;151.184;2023-04-24T09:07:20;20.60;99.90
16441;DHT22;8330;-33.858;151.184;2023-04-24T09:09:53;20.60;99.90
16441;DHT22;8330;-33.858;151.184;2023-04-24T09:12:24;20.60;99.90
16441;DHT22;8330;-33.858;151.184;2023-04-24T09:14:57;20.60;99.90
16441;DHT22;8330;-33.858;151.184;2023-04-24T09:17:29;20.60;99.90
16441;DHT22;8330;-33.858;151.184;2023-04-24T09:20:01;20.60;99.90
16441;DHT22;8330;-33.858;151.184;2023-04-24T09:22:32;20.60;99.90
16441;DHT22;8330;-33.858;151.184;2023-04-24T09:25:06;20.60;99.90
16441;DHT22;8330;-33.858;151.184;2023-04-24T09:27:43;20.60;99.90
16441;DHT22;8330;-33.858;151.184;2023-04-24T09:30:22;20.50;99.90
16441;DHT22;8330;-33.858;151.184;2023-04-24T09:33:10;20.50;99.90
16441;DHT22;8330;-33.858;151.184;2023-04-24T09:35:42;20.50;99.90
16441;DHT22;8330;-33.858;151.184;2023-04-24T09:38:19;20.40;99.90
16441;DHT22;8330;-33.858;151.184;2023-04-24T09:40:55;20.30;99.90
16441;DHT22;8330;-33.858;151.184;2023-04-24T09:43:30;20.30;99.90
16441;DHT22;8330;-33.858;151.184;2023-04-24T09:46:06;20.30;99.90
16441;DHT22;8330;-33.858;151.184;2023-04-24T09:48:38;20.30;99.90
16441;DHT22;8330;-33.858;151.184;2023-04-24T09:51:09;20.30;99.90
16441;DHT22;8330;-33.858;151.184;2023-04-24T09:53:44;20.30;99.90
16441;DHT22;8330;-33.858;151.184;2023-04-24T09:56:15;20.30;99.90
16441;DHT22;8330;-33.858;151.184;2023-04-24T09:58:48;20.30;99.90
16441;DHT22;8330;-33.858;151.184;2023-04-24T10:01:30;20.30;99.90
16441;DHT22;8330;-33.858;151.184;2023-04-24T10:04:02;20.30;99.90
16441;DHT22;8330;-33.858;151.184;2023-04-24T10:06:36;20.30;99.90
16441;DHT22;8330;-33.858;151.184;2023-04-24T10:09:07;20.30;99.90
16441;DHT22;8330;-33.858;151.184;2023-04-24T10:11:42;20.30;99.90
16441;DHT22;8330;-33.858;151.184;2023-04-24T10:14:16;20.20;99.90
16441;DHT22;8330;-33.858;151.184;2023-04-24T10:16:51;20.20;99.90
16441;DHT22;8330;-33.858;151.184;2023-04-24T10:19:26;20.10;99.90
16441;DHT22;8330;-33.858;151.184;2023-04-24T10:22:00;20.10;99.90
16441;DHT22;8330;-33.858;151.184;2023-04-24T10:24:33;20.10;99.90
16441;DHT22;8330;-33.858;151.184;2023-04-24T10:27:06;20.00;99.90
16441;DHT22;8330;-33.858;151.184;2023-04-24T10:29:40;20.00;99.90
16441;DHT22;8330;-33.858;151.184;2023-04-24T10:32:14;20.00;99.90
16441;DHT22;8330;-33.858;151.184;2023-04-24T10:34:47;20.00;99.90
16441;DHT22;8330;-33.858;151.184;2023-04-24T10:37:19;20.00;99.90
16441;DHT22;8330;-33.858;151.184;2023-04-24T10:39:50;20.00;99.90
16441;DHT22;8330;-33.858;151.184;2023-04-24T10:42:22;20.00;99.90
16441;DHT22;8330;-33.858;151.184;2023-04-24T10:44:53;20.00;99.90
16441;DHT22;8330;-33.858;151.184;2023-04-24T10:47:27;20.00;99.90
16441;DHT22;8330;-33.858;151.184;2023-04-24T10:50:01;20.00;99.90
16441;DHT22;8330;-33.858;151.184;2023-04-24T10:52:45;20.00;99.90
16441;DHT22;8330;-33.858;151.184;2023-04-24T10:55:41;20.10;99.90
16441;DHT22;8330;-33.858;151.184;2023-04-24T10:58:13;20.00;99.90
16441;DHT22;8330;-33.858;151.184;2023-04-24T11:00:54;20.00;99.90
16441;DHT22;8330;-33.858;151.184;2023-04-24T11:03:29;20.00;99.90
16441;DHT22;8330;-33.858;151.184;2023-04-24T11:06:01;20.10;99.90
16441;DHT22;8330;-33.858;151.184;2023-04-24T11:08:37;20.10;99.90
16441;DHT22;8330;-33.858;151.184;2023-04-24T11:11:12;20.10;99.90
16441;DHT22;8330;-33.858;151.184;2023-04-24T11:14:09;20.10;99.90
16441;DHT22;8330;-33.858;151.184;2023-04-24T11:16:52;20.10;99.90
16441;DHT22;8330;-33.858;151.184;2023-04-24T11:19:26;20.10;99.90
16441;DHT22;8330;-33.858;151.184;2023-04-24T11:21:59;20.10;99.90
16441;DHT22;8330;-33.858;151.184;2023-04-24T11:24:38;20.10;99.90
16441;DHT22;8330;-33.858;151.184;2023-04-24T11:27:14;20.10;99.90
16441;DHT22;8330;-33.858;151.184;2023-04-24T11:29:48;20.10;99.90
16441;DHT22;8330;-33.858;151.184;2023-04-24T11:32:24;20.10;99.90
16441;DHT22;8330;-33.858;151.184;2023-04-24T11:34:58;20.10;99.90
16441;DHT22;8330;-33.858;151.184;2023-04-24T11:37:33;20.00;99.90
16441;DHT22;8330;-33.858;151.184;2023-04-24T11:40:06;20.00;99.90
16441;DHT22;8330;-33.858;151.184;2023-04-24T11:42:38;20.00;99.90
16441;DHT22;8330;-33.858;151.184;2023-04-24T11:45:12;20.00;99.90
16441;DHT22;8330;-33.858;151.184;2023-04-24T11:47:47;20.00;99.90
16441;DHT22;8330;-33.858;151.184;2023-04-24T11:50:24;20.00;99.90
16441;DHT22;8330;-33.858;151.184;2023-04-24T11:52:56;19.90;99.90
16441;DHT22;8330;-33.858;151.184;2023-04-24T11:55:29;19.90;99.90
16441;DHT22;8330;-33.858;151.184;2023-04-24T11:58:05;19.80;99.90
16441;DHT22;8330;-33.858;151.184;2023-04-24T12:00:36;19.90;99.90
16441;DHT22;8330;-33.858;151.184;2023-04-24T12:03:08;19.80;99.90
16441;DHT22;8330;-33.858;151.184;2023-04-24T12:05:50;19.80;99.90
16441;DHT22;8330;-33.858;151.184;2023-04-24T12:08:29;19.80;99.90
16441;DHT22;8330;-33.858;151.184;2023-04-24T12:11:01;19.70;99.90
16441;DHT22;8330;-33.858;151.184;2023-04-24T12:13:32;19.70;99.90
16441;DHT22;8330;-33.858;151.184;2023-04-24T12:16:08;19.70;99.90
16441;DHT22;8330;-33.858;151.184;2023-04-24T12:18:44;19.70;99.90
16441;DHT22;8330;-33.858;151.184;2023-04-24T12:21:21;19.70;99.90
16441;DHT22;8330;-33.858;151.184;2023-04-24T12:23:56;19.70;99.90
16441;DHT22;8330;-33.858;151.184;2023-04-24T12:26:28;19.70;99.90
16441;DHT22;8330;-33.858;151.184;2023-04-24T12:29:03;19.70;99.90
16441;DHT22;8330;-33.858;151.184;2023-04-24T12:31:35;19.70;99.90
16441;DHT22;8330;-33.858;151.184;2023-04-24T12:34:19;19.60;99.90
16441;DHT22;8330;-33.858;151.184;2023-04-24T12:36:52;19.50;99.90
16441;DHT22;8330;-33.858;151.184;2023-04-24T12:39:24;19.50;99.90
16441;DHT22;8330;-33.858;151.184;2023-04-24T12:41:58;19.40;99.90
16441;DHT22;8330;-33.858;151.184;2023-04-24T12:44:33;19.40;99.90
16441;DHT22;8330;-33.858;151.184;2023-04-24T12:47:08;19.40;99.90
16441;DHT22;8330;-33.858;151.184;2023-04-24T12:49:40;19.40;99.90
16441;DHT22;8330;-33.858;151.184;2023-04-24T12:52:13;19.30;99.90
16441;DHT22;8330;-33.858;151.184;2023-04-24T12:54:45;19.30;99.90
16441;DHT22;8330;-33.858;151.184;2023-04-24T12:57:16;19.30;99.90
16441;DHT22;8330;-33.858;151.184;2023-04-24T12:59:47;19.30;99.90
16441;DHT22;8330;-33.858;151.184;2023-04-24T13:02:18;19.30;99.90
16441;DHT22;8330;-33.858;151.184;2023-04-24T13:04:50;19.30;99.90
16441;DHT22;8330;-33.858;151.184;2023-04-24T13:07:24;19.20;99.90
16441;DHT22;8330;-33.858;151.184;2023-04-24T13:09:57;19.20;99.90
16441;DHT22;8330;-33.858;151.184;2023-04-24T13:12:28;19.20;99.90
16441;DHT22;8330;-33.858;151.184;2023-04-24T13:14:59;19.20;99.90
16441;DHT22;8330;-33.858;151.184;2023-04-24T13:17:31;19.20;99.90
16441;DHT22;8330;-33.858;151.184;2023-04-24T13:20:02;19.20;99.90
16441;DHT22;8330;-33.858;151.184;2023-04-24T13:22:35;19.20;99.90
16441;DHT22;8330;-33.858;151.184;2023-04-24T13:25:07;19.10;99.90
16441;DHT22;8330;-33.858;151.184;2023-04-24T13:27:40;19.10;99.90
16441;DHT22;8330;-33.858;151.184;2023-04-24T13:30:11;19.10;99.90
16441;DHT22;8330;-33.858;151.184;2023-04-24T13:32:43;19.10;99.90
16441;DHT22;8330;-33.858;151.184;2023-04-24T13:35:14;19.00;99.90
16441;DHT22;8330;-33.858;151.184;2023-04-24T13:37:47;19.10;99.90
16441;DHT22;8330;-33.858;151.184;2023-04-24T13:40:18;19.10;99.90
16441;DHT22;8330;-33.858;151.184;2023-04-24T13:42:49;19.00;99.90
16441;DHT22;8330;-33.858;151.184;2023-04-24T13:45:21;19.00;99.90
16441;DHT22;8330;-33.858;151.184;2023-04-24T13:47:52;19.00;99.90
16441;DHT22;8330;-33.858;151.184;2023-04-24T13:50:25;18.90;99.90
16441;DHT22;8330;-33.858;151.184;2023-04-24T13:52:58;18.90;99.90
16441;DHT22;8330;-33.858;151.184;2023-04-24T13:55:30;19.00;99.90
16441;DHT22;8330;-33.858;151.184;2023-04-24T13:58:01;18.90;99.90
16441;DHT22;8330;-33.858;151.184;2023-04-24T14:00:32;18.90;99.90
16441;DHT22;8330;-33.858;151.184;2023-04-24T14:03:03;18.90;99.90
16441;DHT22;8330;-33.858;151.184;2023-04-24T14:05:34;18.90;99.90
16441;DHT22;8330;-33.858;151.184;2023-04-24T14:08:07;19.00;99.90
16441;DHT22;8330;-33.858;151.184;2023-04-24T14:10:38;19.00;99.90
16441;DHT22;8330;-33.858;151.184;2023-04-24T14:13:09;19.00;99.90
16441;DHT22;8330;-33.858;151.184;2023-04-24T14:15:40;19.00;99.90
16441;DHT22;8330;-33.858;151.184;2023-04-24T14:18:12;19.10;99.90
16441;DHT22;8330;-33.858;151.184;2023-04-24T14:20:43;19.10;99.90
16441;DHT22;8330;-33.858;151.184;2023-04-24T14:23:17;19.10;99.90
16441;DHT22;8330;-33.858;151.184;2023-04-24T14:25:48;19.00;99.90
16441;DHT22;8330;-33.858;151.184;2023-04-24T14:28:20;19.00;99.90
16441;DHT22;8330;-33.858;151.184;2023-04-24T14:30:51;19.00;99.90
16441;DHT22;8330;-33.858;151.184;2023-04-24T14:33:23;19.00;99.90
16441;DHT22;8330;-33.858;151.184;2023-04-24T14:35:55;19.00;99.90
16441;DHT22;8330;-33.858;151.184;2023-04-24T14:38:28;19.00;99.90
16441;DHT22;8330;-33.858;151.184;2023-04-24T14:40:59;19.00;99.90
16441;DHT22;8330;-33.858;151.184;2023-04-24T14:43:36;19.00;99.90
16441;DHT22;8330;-33.858;151.184;2023-04-24T14:46:07;19.10;99.90
16441;DHT22;8330;-33.858;151.184;2023-04-24T14:48:38;19.10;99.90
16441;DHT22;8330;-33.858;151.184;2023-04-24T14:51:09;19.10;99.90
16441;DHT22;8330;-33.858;151.184;2023-04-24T14:53:42;19.00;99.90
16441;DHT22;8330;-33.858;151.184;2023-04-24T14:56:14;19.10;99.90
16441;DHT22;8330;-33.858;151.184;2023-04-24T14:58:45;19.00;99.90
16441;DHT22;8330;-33.858;151.184;2023-04-24T15:01:17;19.10;99.90
16441;DHT22;8330;-33.858;151.184;2023-04-24T15:03:48;19.00;99.90
16441;DHT22;8330;-33.858;151.184;2023-04-24T15:06:19;19.10;99.90
16441;DHT22;8330;-33.858;151.184;2023-04-24T15:08:52;19.00;99.90
16441;DHT22;8330;-33.858;151.184;2023-04-24T15:11:23;19.10;99.90
16441;DHT22;8330;-33.858;151.184;2023-04-24T15:13:55;19.10;99.90
16441;DHT22;8330;-33.858;151.184;2023-04-24T15:16:26;19.00;99.90
16441;DHT22;8330;-33.858;151.184;2023-04-24T15:18:57;19.00;99.90
16441;DHT22;8330;-33.858;151.184;2023-04-24T15:21:28;19.00;99.90
16441;DHT22;8330;-33.858;151.184;2023-04-24T15:24:01;19.00;99.90
16441;DHT22;8330;-33.858;151.184;2023-04-24T15:26:33;18.90;99.90
16441;DHT22;8330;-33.858;151.184;2023-04-24T15:29:06;19.00;99.90
16441;DHT22;8330;-33.858;151.184;2023-04-24T15:31:37;19.00;99.90
16441;DHT22;8330;-33.858;151.184;2023-04-24T15:34:09;19.00;99.90
16441;DHT22;8330;-33.858;151.184;2023-04-24T15:36:40;19.00;99.90